sensor_id;sensor_type;location;lat;lon;timestamp;temperature;humidity
18177;DHT22;9213;50.858;3.964;2023-07-02T00:01:48;21.70;48.60
18177;DHT22;9213;50.858;3.964;2023-07-02T00:04:15;21.70;48.60
18177;DHT22;9213;50.858;3.964;2023-07-02T00:06:47;21.70;48.70
18177;DHT22;9213;50.858;3.964;2023-07-02T00:09:14;21.70;48.70
18177;DHT22;9213;50.858;3.964;2023-07-02T00:11:42;21.60;48.70
18177;DHT22;9213;50.858;3.964;2023-07-02T00:14:10;21.60;48.70
18177;DHT22;9213;50.858;3.964;2023-07-02T00:16:38;21.60;48.80
18177;DHT22;9213;50.858;3.964;2023-07-02T00:19:06;21.60;48.90
18177;DHT22;9213;50.858;3.964;2023-07-02T00:21:33;21.60;48.90
18177;DHT22;9213;50.858;3.964;2023-07-02T00:24:04;21.60;48.90
18177;DHT22;9213;50.858;3.964;2023-07-02T00:26:31;21.60;49.00
18177;DHT22;9213;50.858;3.964;2023-07-02T00:28:58;21.50;49.10
18177;DHT22;9213;50.858;3.964;2023-07-02T00:31:25;21.50;49.20
18177;DHT22;9213;50.858;3.964;2023-07-02T00:33:52;21.50;49.20
18177;DHT22;9213;50.858;3.964;2023-07-02T00:36:19;21.50;49.30
18177;DHT22;9213;50.858;3.964;2023-07-02T00:38:47;21.50;49.30
18177;DHT22;9213;50.858;3.964;2023-07-02T00:41:16;21.40;49.50
18177;DHT22;9213;50.858;3.964;2023-07-02T00:43:43;21.40;49.50
18177;DHT22;9213;50.858;3.964;2023-07-02T00:46:14;21.40;49.70
18177;DHT22;9213;50.858;3.964;2023-07-02T00:48:43;21.40;49.70
18177;DHT22;9213;50.858;3.964;2023-07-02T00:51:12;21.30;49.70
18177;DHT22;9213;50.858;3.964;2023-07-02T00:53:40;21.30;49.90
18177;DHT22;9213;50.858;3.964;2023-07-02T00:56:07;21.30;50.00
18177;DHT22;9213;50.858;3.964;2023-07-02T00:58:39;21.30;50.00
18177;DHT22;9213;50.858;3.964;2023-07-02T01:01:06;21.30;50.20
18177;DHT22;9213;50.858;3.964;2023-07-02T01:03:35;21.30;50.30
18177;DHT22;9213;50.858;3.964;2023-07-02T01:06:03;21.30;50.40
18177;DHT22;9213;50.858;3.964;2023-07-02T01:08:30;21.30;50.50
18177;DHT22;9213;50.858;3.964;2023-07-02T01:10:57;21.30;50.50
18177;DHT22;9213;50.858;3.964;2023-07-02T01:13:26;21.30;50.50
18177;DHT22;9213;50.858;3.964;2023-07-02T01:15:55;21.30;50.50
18177;DHT22;9213;50.858;3.964;2023-07-02T01:18:22;21.30;50.50
18177;DHT22;9213;50.858;3.964;2023-07-02T01:20:51;21.30;50.60
18177;DHT22;9213;50.858;3.964;2023-07-02T01:23:19;21.30;50.60
18177;DHT22;9213;50.858;3.964;2023-07-02T01:25:46;21.30;50.70
18177;DHT22;9213;50.858;3.964;2023-07-02T01:28:13;21.30;50.80
18177;DHT22;9213;50.858;3.964;2023-07-02T01:30:40;21.30;50.90
18177;DHT22;9213;50.858;3.964;2023-07-02T01:33:07;21.30;50.90
18177;DHT22;9213;50.858;3.964;2023-07-02T01:35:34;21.30;51.00
18177;DHT22;9213;50.858;3.964;2023-07-02T01:38:02;21.30;51.00
18177;DHT22;9213;50.858;3.964;2023-07-02T01:40:29;21.40;51.10
18177;DHT22;9213;50.858;3.964;2023-07-02T01:42:56;21.30;51.00
18177;DHT22;9213;50.858;3.964;2023-07-02T01:45:23;21.40;51.60
18177;DHT22;9213;50.858;3.964;2023-07-02T01:47:50;21.30;51.00
18177;DHT22;9213;50.858;3.964;2023-07-02T01:50:17;21.30;51.10
18177;DHT22;9213;50.858;3.964;2023-07-02T01:52:44;21.30;51.20
18177;DHT22;9213;50.858;3.964;2023-07-02T01:55:13;21.30;51.30
18177;DHT22;9213;50.858;3.964;2023-07-02T01:57:39;21.30;51.50
18177;DHT22;9213;50.858;3.964;2023-07-02T02:00:07;21.20;51.40
18177;DHT22;9213;50.858;3.964;2023-07-02T02:02:35;21.20;51.60
18177;DHT22;9213;50.858;3.964;2023-07-02T02:05:02;21.20;51.70
18177;DHT22;9213;50.858;3.964;2023-07-02T02:07:29;21.20;51.90
18177;DHT22;9213;50.858;3.964;2023-07-02T02:09:55;21.10;52.10
18177;DHT22;9213;50.858;3.964;2023-07-02T02:12:24;21.10;52.20
18177;DHT22;9213;50.858;3.964;2023-07-02T02:14:51;21.10;52.30
18177;DHT22;9213;50.858;3.964;2023-07-02T02:17:17;21.10;52.30
18177;DHT22;9213;50.858;3.964;2023-07-02T02:19:44;21.10;52.40
18177;DHT22;9213;50.858;3.964;2023-07-02T02:22:11;21.10;52.50
18177;DHT22;9213;50.858;3.964;2023-07-02T02:24:38;21.00;52.50
18177;DHT22;9213;50.858;3.964;2023-07-02T02:27:05;21.00;52.60
18177;DHT22;9213;50.858;3.964;2023-07-02T02:29:33;21.00;52.70
18177;DHT22;9213;50.858;3.964;2023-07-02T02:32:00;21.00;52.70
18177;DHT22;9213;50.858;3.964;2023-07-02T02:34:27;20.90;52.80
18177;DHT22;9213;50.858;3.964;2023-07-02T02:36:55;20.90;53.00
18177;DHT22;9213;50.858;3.964;2023-07-02T02:39:22;20.90;53.10
18177;DHT22;9213;50.858;3.964;2023-07-02T02:41:49;20.90;53.20
18177;DHT22;9213;50.858;3.964;2023-07-02T02:44:16;20.80;53.10
18177;DHT22;9213;50.858;3.964;2023-07-02T02:46:44;20.80;53.20
18177;DHT22;9213;50.858;3.964;2023-07-02T02:49:11;20.80;53.30
18177;DHT22;9213;50.858;3.964;2023-07-02T02:51:38;20.70;53.40
18177;DHT22;9213;50.858;3.964;2023-07-02T02:54:06;20.70;53.50
18177;DHT22;9213;50.858;3.964;2023-07-02T02:56:33;20.70;53.70
18177;DHT22;9213;50.858;3.964;2023-07-02T02:59:00;20.70;53.80
18177;DHT22;9213;50.858;3.964;2023-07-02T03:01:27;20.60;53.80
18177;DHT22;9213;50.858;3.964;2023-07-02T03:03:58;20.50;53.90
18177;DHT22;9213;50.858;3.964;2023-07-02T03:06:25;20.60;54.10
18177;DHT22;9213;50.858;3.964;2023-07-02T03:08:52;20.50;54.20
18177;DHT22;9213;50.858;3.964;2023-07-02T03:11:19;20.50;54.30
18177;DHT22;9213;50.858;3.964;2023-07-02T03:13:46;20.50;55.20
18177;DHT22;9213;50.858;3.964;2023-07-02T03:16:13;20.50;54.60
18177;DHT22;9213;50.858;3.964;2023-07-02T03:18:40;20.50;54.60
18177;DHT22;9213;50.858;3.964;2023-07-02T03:21:09;20.50;54.50
18177;DHT22;9213;50.858;3.964;2023-07-02T03:23:36;20.50;54.60
18177;DHT22;9213;50.858;3.964;2023-07-02T03:26:03;20.50;54.60
18177;DHT22;9213;50.858;3.964;2023-07-02T03:28:30;20.50;54.50
18177;DHT22;9213;50.858;3.964;2023-07-02T03:30:59;20.50;54.60
18177;DHT22;9213;50.858;3.964;2023-07-02T03:33:26;20.50;54.60
18177;DHT22;9213;50.858;3.964;2023-07-02T03:35:52;20.50;54.60
18177;DHT22;9213;50.858;3.964;2023-07-02T03:38:21;20.50;54.70
18177;DHT22;9213;50.858;3.964;2023-07-02T03:40:48;20.50;54.70
18177;DHT22;9213;50.858;3.964;2023-07-02T03:43:14;20.50;54.70
18177;DHT22;9213;50.858;3.964;2023-07-02T03:45:41;20.50;54.70
18177;DHT22;9213;50.858;3.964;2023-07-02T03:48:08;20.50;54.80
18177;DHT22;9213;50.858;3.964;2023-07-02T03:50:35;20.50;54.80
18177;DHT22;9213;50.858;3.964;2023-07-02T03:53:02;20.50;54.90
18177;DHT22;9213;50.858;3.964;2023-07-02T03:55:31;20.50;55.00
18177;DHT22;9213;50.858;3.964;2023-07-02T03:57:58;20.50;55.00
18177;DHT22;9213;50.858;3.964;2023-07-02T04:00:24;20.50;54.90
18177;DHT22;9213;50.858;3.964;2023-07-02T04:02:51;20.50;54.90
18177;DHT22;9213;50.858;3.964;2023-07-02T04:05:18;20.50;54.80
18177;DHT22;9213;50.858;3.964;2023-07-02T04:07:45;20.50;54.90
18177;DHT22;9213;50.858;3.964;2023-07-02T04:10:12;20.50;55.00
18177;DHT22;9213;50.858;3.964;2023-07-02T04:12:41;20.50;55.10
18177;DHT22;9213;50.858;3.964;2023-07-02T04:15:08;20.50;55.20
18177;DHT22;9213;50.858;3.964;2023-07-02T04:17:35;20.50;55.20
18177;DHT22;9213;50.858;3.964;2023-07-02T04:20:03;20.50;55.20
18177;DHT22;9213;50.858;3.964;2023-07-02T04:22:30;20.50;55.20
18177;DHT22;9213;50.858;3.964;2023-07-02T04:24:57;20.50;55.30
18177;DHT22;9213;50.858;3.964;2023-07-02T04:27:24;20.50;55.20
18177;DHT22;9213;50.858;3.964;2023-07-02T04:29:53;20.50;55.20
18177;DHT22;9213;50.858;3.964;2023-07-02T04:32:21;20.60;55.20
18177;DHT22;9213;50.858;3.964;2023-07-02T04:34:48;20.60;55.20
18177;DHT22;9213;50.858;3.964;2023-07-02T04:37:15;20.60;55.20
18177;DHT22;9213;50.858;3.964;2023-07-02T04:39:42;20.60;55.10
18177;DHT22;9213;50.858;3.964;2023-07-02T04:42:08;20.70;55.10
18177;DHT22;9213;50.858;3.964;2023-07-02T04:44:38;20.70;55.10
18177;DHT22;9213;50.858;3.964;2023-07-02T04:47:10;20.70;55.10
18177;DHT22;9213;50.858;3.964;2023-07-02T04:49:37;20.70;55.00
18177;DHT22;9213;50.858;3.964;2023-07-02T04:52:04;20.80;55.00
18177;DHT22;9213;50.858;3.964;2023-07-02T04:54:31;20.80;54.90
18177;DHT22;9213;50.858;3.964;2023-07-02T04:56:58;20.80;54.70
18177;DHT22;9213;50.858;3.964;2023-07-02T04:59:25;20.90;54.70
18177;DHT22;9213;50.858;3.964;2023-07-02T05:01:52;21.00;54.70
18177;DHT22;9213;50.858;3.964;2023-07-02T05:04:20;21.10;54.60
18177;DHT22;9213;50.858;3.964;2023-07-02T05:06:47;21.10;54.50
18177;DHT22;9213;50.858;3.964;2023-07-02T05:09:14;21.10;54.40
18177;DHT22;9213;50.858;3.964;2023-07-02T05:11:41;21.20;54.40
18177;DHT22;9213;50.858;3.964;2023-07-02T05:14:08;21.20;54.50
18177;DHT22;9213;50.858;3.964;2023-07-02T05:16:35;21.20;54.30
18177;DHT22;9213;50.858;3.964;2023-07-02T05:19:02;21.30;54.30
18177;DHT22;9213;50.858;3.964;2023-07-02T05:21:30;21.30;54.20
18177;DHT22;9213;50.858;3.964;2023-07-02T05:23:57;21.40;54.20
18177;DHT22;9213;50.858;3.964;2023-07-02T05:26:24;21.40;54.20
18177;DHT22;9213;50.858;3.964;2023-07-02T05:28:52;21.40;54.00
18177;DHT22;9213;50.858;3.964;2023-07-02T05:31:19;21.50;54.10
18177;DHT22;9213;50.858;3.964;2023-07-02T05:33:46;21.60;54.00
18177;DHT22;9213;50.858;3.964;2023-07-02T05:36:13;21.70;53.80
18177;DHT22;9213;50.858;3.964;2023-07-02T05:38:41;21.70;53.60
18177;DHT22;9213;50.858;3.964;2023-07-02T05:41:08;21.80;53.30
18177;DHT22;9213;50.858;3.964;2023-07-02T05:43:35;21.80;53.00
18177;DHT22;9213;50.858;3.964;2023-07-02T05:46:02;21.80;52.90
18177;DHT22;9213;50.858;3.964;2023-07-02T05:48:29;21.80;52.80
18177;DHT22;9213;50.858;3.964;2023-07-02T05:50:56;21.90;52.80
18177;DHT22;9213;50.858;3.964;2023-07-02T05:53:23;22.00;52.50
18177;DHT22;9213;50.858;3.964;2023-07-02T05:55:51;22.10;52.40
18177;DHT22;9213;50.858;3.964;2023-07-02T05:58:19;22.10;52.20
18177;DHT22;9213;50.858;3.964;2023-07-02T06:00:46;22.30;51.80
18177;DHT22;9213;50.858;3.964;2023-07-02T06:03:15;22.40;51.60
18177;DHT22;9213;50.858;3.964;2023-07-02T06:05:46;22.50;51.30
18177;DHT22;9213;50.858;3.964;2023-07-02T06:08:15;22.70;50.60
18177;DHT22;9213;50.858;3.964;2023-07-02T06:10:42;22.80;49.80
18177;DHT22;9213;50.858;3.964;2023-07-02T06:13:10;22.80;49.10
18177;DHT22;9213;50.858;3.964;2023-07-02T06:15:37;22.90;48.50
18177;DHT22;9213;50.858;3.964;2023-07-02T06:18:04;23.00;48.30
18177;DHT22;9213;50.858;3.964;2023-07-02T06:20:31;23.10;48.30
18177;DHT22;9213;50.858;3.964;2023-07-02T06:22:58;23.20;48.10
18177;DHT22;9213;50.858;3.964;2023-07-02T06:25:25;23.30;48.20
18177;DHT22;9213;50.858;3.964;2023-07-02T06:27:53;23.40;47.60
18177;DHT22;9213;50.858;3.964;2023-07-02T06:30:24;23.50;47.00
18177;DHT22;9213;50.858;3.964;2023-07-02T06:32:53;23.60;46.60
18177;DHT22;9213;50.858;3.964;2023-07-02T06:35:21;23.60;46.10
18177;DHT22;9213;50.858;3.964;2023-07-02T06:37:47;23.60;45.60
18177;DHT22;9213;50.858;3.964;2023-07-02T06:40:14;23.60;45.80
18177;DHT22;9213;50.858;3.964;2023-07-02T06:42:41;23.60;45.90
18177;DHT22;9213;50.858;3.964;2023-07-02T06:45:08;23.60;45.20
18177;DHT22;9213;50.858;3.964;2023-07-02T06:47:37;23.60;45.30
18177;DHT22;9213;50.858;3.964;2023-07-02T06:50:04;23.70;45.30
18177;DHT22;9213;50.858;3.964;2023-07-02T06:52:31;23.70;45.50
18177;DHT22;9213;50.858;3.964;2023-07-02T06:54:58;23.80;45.10
18177;DHT22;9213;50.858;3.964;2023-07-02T06:57:25;23.80;44.30
18177;DHT22;9213;50.858;3.964;2023-07-02T06:59:52;23.90;44.00
18177;DHT22;9213;50.858;3.964;2023-07-02T07:02:19;23.90;44.20
18177;DHT22;9213;50.858;3.964;2023-07-02T07:04:47;24.00;43.90
18177;DHT22;9213;50.858;3.964;2023-07-02T07:07:14;24.00;44.10
18177;DHT22;9213;50.858;3.964;2023-07-02T07:09:41;24.10;43.20
18177;DHT22;9213;50.858;3.964;2023-07-02T07:12:08;24.20;43.00
18177;DHT22;9213;50.858;3.964;2023-07-02T07:14:35;24.30;41.70
18177;DHT22;9213;50.858;3.964;2023-07-02T07:17:02;24.50;41.70
18177;DHT22;9213;50.858;3.964;2023-07-02T07:19:29;24.60;42.20
18177;DHT22;9213;50.858;3.964;2023-07-02T07:21:57;24.70;41.20
18177;DHT22;9213;50.858;3.964;2023-07-02T07:24:24;24.90;40.30
18177;DHT22;9213;50.858;3.964;2023-07-02T07:26:51;25.10;40.20
18177;DHT22;9213;50.858;3.964;2023-07-02T07:29:18;25.40;38.30
18177;DHT22;9213;50.858;3.964;2023-07-02T07:31:45;25.60;38.40
18177;DHT22;9213;50.858;3.964;2023-07-02T07:34:12;25.90;37.70
18177;DHT22;9213;50.858;3.964;2023-07-02T07:36:39;26.30;36.80
18177;DHT22;9213;50.858;3.964;2023-07-02T07:39:07;26.50;36.50
18177;DHT22;9213;50.858;3.964;2023-07-02T07:41:34;26.70;36.40
18177;DHT22;9213;50.858;3.964;2023-07-02T07:44:01;26.90;35.30
18177;DHT22;9213;50.858;3.964;2023-07-02T07:46:28;27.00;35.80
18177;DHT22;9213;50.858;3.964;2023-07-02T07:48:55;27.00;35.60
18177;DHT22;9213;50.858;3.964;2023-07-02T07:51:22;27.00;35.90
18177;DHT22;9213;50.858;3.964;2023-07-02T07:53:49;26.90;35.10
18177;DHT22;9213;50.858;3.964;2023-07-02T07:56:17;26.90;35.30
18177;DHT22;9213;50.858;3.964;2023-07-02T07:58:44;26.90;35.30
18177;DHT22;9213;50.858;3.964;2023-07-02T08:01:11;27.00;35.40
18177;DHT22;9213;50.858;3.964;2023-07-02T08:03:38;27.00;35.10
18177;DHT22;9213;50.858;3.964;2023-07-02T08:06:05;26.90;34.50
18177;DHT22;9213;50.858;3.964;2023-07-02T08:08:32;26.80;34.50
18177;DHT22;9213;50.858;3.964;2023-07-02T08:10:59;26.70;34.80
18177;DHT22;9213;50.858;3.964;2023-07-02T08:13:27;26.60;34.70
18177;DHT22;9213;50.858;3.964;2023-07-02T08:15:54;26.60;34.70
18177;DHT22;9213;50.858;3.964;2023-07-02T08:18:21;26.70;35.10
18177;DHT22;9213;50.858;3.964;2023-07-02T08:20:48;26.80;34.90
18177;DHT22;9213;50.858;3.964;2023-07-02T08:23:15;27.00;35.60
18177;DHT22;9213;50.858;3.964;2023-07-02T08:25:42;27.30;34.20
18177;DHT22;9213;50.858;3.964;2023-07-02T08:28:09;27.60;33.60
18177;DHT22;9213;50.858;3.964;2023-07-02T08:30:37;28.30;33.70
18177;DHT22;9213;50.858;3.964;2023-07-02T08:33:04;29.20;31.50
18177;DHT22;9213;50.858;3.964;2023-07-02T08:35:31;30.00;29.20
18177;DHT22;9213;50.858;3.964;2023-07-02T08:37:58;30.50;28.50
18177;DHT22;9213;50.858;3.964;2023-07-02T08:40:25;31.00;28.30
18177;DHT22;9213;50.858;3.964;2023-07-02T08:42:52;31.40;26.60
18177;DHT22;9213;50.858;3.964;2023-07-02T08:45:20;31.30;27.20
18177;DHT22;9213;50.858;3.964;2023-07-02T08:47:51;30.90;26.50
18177;DHT22;9213;50.858;3.964;2023-07-02T08:50:20;30.40;27.60
18177;DHT22;9213;50.858;3.964;2023-07-02T08:52:47;30.00;28.90
18177;DHT22;9213;50.858;3.964;2023-07-02T08:55:14;29.70;28.50
18177;DHT22;9213;50.858;3.964;2023-07-02T08:57:48;29.70;28.90
18177;DHT22;9213;50.858;3.964;2023-07-02T09:00:17;30.00;29.00
18177;DHT22;9213;50.858;3.964;2023-07-02T09:02:44;30.30;27.80
18177;DHT22;9213;50.858;3.964;2023-07-02T09:05:13;30.40;27.30
18177;DHT22;9213;50.858;3.964;2023-07-02T09:07:44;30.30;27.50
18177;DHT22;9213;50.858;3.964;2023-07-02T09:10:11;30.30;27.50
18177;DHT22;9213;50.858;3.964;2023-07-02T09:12:38;30.10;27.20
18177;DHT22;9213;50.858;3.964;2023-07-02T09:15:06;29.80;26.90
18177;DHT22;9213;50.858;3.964;2023-07-02T09:17:34;29.50;27.10
18177;DHT22;9213;50.858;3.964;2023-07-02T09:20:03;29.30;27.60
18177;DHT22;9213;50.858;3.964;2023-07-02T09:22:34;29.30;28.60
18177;DHT22;9213;50.858;3.964;2023-07-02T09:25:01;29.60;28.10
18177;DHT22;9213;50.858;3.964;2023-07-02T09:27:35;29.80;28.00
18177;DHT22;9213;50.858;3.964;2023-07-02T09:30:07;29.90;26.50
18177;DHT22;9213;50.858;3.964;2023-07-02T09:32:34;29.80;27.10
18177;DHT22;9213;50.858;3.964;2023-07-02T09:35:01;29.70;27.50
18177;DHT22;9213;50.858;3.964;2023-07-02T09:37:30;30.00;27.60
18177;DHT22;9213;50.858;3.964;2023-07-02T09:39:59;30.40;25.50
18177;DHT22;9213;50.858;3.964;2023-07-02T09:42:28;30.50;25.40
18177;DHT22;9213;50.858;3.964;2023-07-02T09:44:55;30.30;25.30
18177;DHT22;9213;50.858;3.964;2023-07-02T09:47:24;30.00;25.90
18177;DHT22;9213;50.858;3.964;2023-07-02T09:49:54;29.60;25.80
18177;DHT22;9213;50.858;3.964;2023-07-02T09:52:21;29.40;26.50
18177;DHT22;9213;50.858;3.964;2023-07-02T09:54:48;29.20;27.90
18177;DHT22;9213;50.858;3.964;2023-07-02T09:57:17;29.00;26.80
18177;DHT22;9213;50.858;3.964;2023-07-02T09:59:44;28.80;26.50
18177;DHT22;9213;50.858;3.964;2023-07-02T10:02:12;28.60;27.00
18177;DHT22;9213;50.858;3.964;2023-07-02T10:04:40;28.40;27.90
18177;DHT22;9213;50.858;3.964;2023-07-02T10:07:07;28.30;28.60
18177;DHT22;9213;50.858;3.964;2023-07-02T10:09:36;28.50;29.20
18177;DHT22;9213;50.858;3.964;2023-07-02T10:12:17;28.90;28.90
18177;DHT22;9213;50.858;3.964;2023-07-02T10:14:45;29.80;27.60
18177;DHT22;9213;50.858;3.964;2023-07-02T10:17:23;30.20;26.30
18177;DHT22;9213;50.858;3.964;2023-07-02T10:19:51;30.50;25.20
18177;DHT22;9213;50.858;3.964;2023-07-02T10:22:18;30.30;24.80
18177;DHT22;9213;50.858;3.964;2023-07-02T10:24:51;30.00;25.20
18177;DHT22;9213;50.858;3.964;2023-07-02T10:27:20;29.80;24.90
18177;DHT22;9213;50.858;3.964;2023-07-02T10:29:50;29.50;26.10
18177;DHT22;9213;50.858;3.964;2023-07-02T10:32:26;29.40;26.30
18177;DHT22;9213;50.858;3.964;2023-07-02T10:34:53;29.50;26.40
18177;DHT22;9213;50.858;3.964;2023-07-02T10:37:20;29.70;26.40
18177;DHT22;9213;50.858;3.964;2023-07-02T10:39:48;30.30;25.70
18177;DHT22;9213;50.858;3.964;2023-07-02T10:42:15;30.90;25.10
18177;DHT22;9213;50.858;3.964;2023-07-02T10:44:50;31.20;23.60
18177;DHT22;9213;50.858;3.964;2023-07-02T10:47:18;31.50;23.10
18177;DHT22;9213;50.858;3.964;2023-07-02T10:49:45;31.60;22.80
18177;DHT22;9213;50.858;3.964;2023-07-02T10:52:13;31.90;22.20
18177;DHT22;9213;50.858;3.964;2023-07-02T10:54:41;32.20;22.60
18177;DHT22;9213;50.858;3.964;2023-07-02T10:57:09;32.80;21.80
18177;DHT22;9213;50.858;3.964;2023-07-02T10:59:37;33.20;22.30
18177;DHT22;9213;50.858;3.964;2023-07-02T11:02:06;33.40;21.40
18177;DHT22;9213;50.858;3.964;2023-07-02T11:04:33;33.30;20.60
18177;DHT22;9213;50.858;3.964;2023-07-02T11:07:00;33.00;21.20
18177;DHT22;9213;50.858;3.964;2023-07-02T11:09:27;32.80;21.20
18177;DHT22;9213;50.858;3.964;2023-07-02T11:11:55;32.60;21.40
18177;DHT22;9213;50.858;3.964;2023-07-02T11:14:29;32.30;22.40
18177;DHT22;9213;50.858;3.964;2023-07-02T11:16:56;32.30;22.70
18177;DHT22;9213;50.858;3.964;2023-07-02T11:19:25;32.10;22.20
18177;DHT22;9213;50.858;3.964;2023-07-02T11:21:53;32.00;23.30
18177;DHT22;9213;50.858;3.964;2023-07-02T11:24:29;31.80;22.80
18177;DHT22;9213;50.858;3.964;2023-07-02T11:26:57;31.60;23.80
18177;DHT22;9213;50.858;3.964;2023-07-02T11:29:24;31.40;22.70
18177;DHT22;9213;50.858;3.964;2023-07-02T11:31:51;31.20;23.40
18177;DHT22;9213;50.858;3.964;2023-07-02T11:34:19;31.00;23.80
18177;DHT22;9213;50.858;3.964;2023-07-02T11:36:48;30.90;23.40
18177;DHT22;9213;50.858;3.964;2023-07-02T11:39:15;30.80;23.70
18177;DHT22;9213;50.858;3.964;2023-07-02T11:41:44;30.70;24.60
18177;DHT22;9213;50.858;3.964;2023-07-02T11:44:12;30.80;23.40
18177;DHT22;9213;50.858;3.964;2023-07-02T11:46:39;30.90;24.00
18177;DHT22;9213;50.858;3.964;2023-07-02T11:49:05;31.10;23.10
18177;DHT22;9213;50.858;3.964;2023-07-02T11:51:35;31.10;23.00
18177;DHT22;9213;50.858;3.964;2023-07-02T11:54:04;31.10;23.00
18177;DHT22;9213;50.858;3.964;2023-07-02T11:56:31;31.00;23.40
18177;DHT22;9213;50.858;3.964;2023-07-02T11:58:58;31.00;23.40
18177;DHT22;9213;50.858;3.964;2023-07-02T12:01:25;31.10;23.80
18177;DHT22;9213;50.858;3.964;2023-07-02T12:03:52;31.20;24.30
18177;DHT22;9213;50.858;3.964;2023-07-02T12:06:19;31.30;24.50
18177;DHT22;9213;50.858;3.964;2023-07-02T12:08:46;31.30;23.30
18177;DHT22;9213;50.858;3.964;2023-07-02T12:11:14;31.50;23.00
18177;DHT22;9213;50.858;3.964;2023-07-02T12:13:41;31.50;23.10
18177;DHT22;9213;50.858;3.964;2023-07-02T12:16:08;31.60;22.60
18177;DHT22;9213;50.858;3.964;2023-07-02T12:18:35;31.70;22.50
18177;DHT22;9213;50.858;3.964;2023-07-02T12:21:02;31.90;22.20
18177;DHT22;9213;50.858;3.964;2023-07-02T12:23:29;31.90;21.80
18177;DHT22;9213;50.858;3.964;2023-07-02T12:25:56;31.90;22.20
18177;DHT22;9213;50.858;3.964;2023-07-02T12:28:24;31.90;21.50
18177;DHT22;9213;50.858;3.964;2023-07-02T12:30:51;32.00;23.00
18177;DHT22;9213;50.858;3.964;2023-07-02T12:33:18;32.10;21.60
18177;DHT22;9213;50.858;3.964;2023-07-02T12:35:45;32.10;21.50
18177;DHT22;9213;50.858;3.964;2023-07-02T12:38:12;32.00;22.40
18177;DHT22;9213;50.858;3.964;2023-07-02T12:40:39;32.00;21.30
18177;DHT22;9213;50.858;3.964;2023-07-02T12:43:06;32.00;21.20
18177;DHT22;9213;50.858;3.964;2023-07-02T12:45:34;32.10;22.20
18177;DHT22;9213;50.858;3.964;2023-07-02T12:48:01;32.30;23.00
18177;DHT22;9213;50.858;3.964;2023-07-02T12:50:28;32.50;22.60
18177;DHT22;9213;50.858;3.964;2023-07-02T12:52:55;32.60;21.90
18177;DHT22;9213;50.858;3.964;2023-07-02T12:55:22;32.80;21.70
18177;DHT22;9213;50.858;3.964;2023-07-02T12:57:49;32.80;20.60
18177;DHT22;9213;50.858;3.964;2023-07-02T13:00:16;32.80;21.20
18177;DHT22;9213;50.858;3.964;2023-07-02T13:02:45;32.70;21.00
18177;DHT22;9213;50.858;3.964;2023-07-02T13:05:13;32.60;21.00
18177;DHT22;9213;50.858;3.964;2023-07-02T13:07:40;32.60;20.70
18177;DHT22;9213;50.858;3.964;2023-07-02T13:10:07;32.70;20.60
18177;DHT22;9213;50.858;3.964;2023-07-02T13:12:35;32.80;21.50
18177;DHT22;9213;50.858;3.964;2023-07-02T13:15:02;32.80;20.80
18177;DHT22;9213;50.858;3.964;2023-07-02T13:17:29;32.90;20.50
18177;DHT22;9213;50.858;3.964;2023-07-02T13:19:57;32.80;20.60
18177;DHT22;9213;50.858;3.964;2023-07-02T13:22:24;32.80;21.10
18177;DHT22;9213;50.858;3.964;2023-07-02T13:24:51;32.70;21.50
18177;DHT22;9213;50.858;3.964;2023-07-02T13:27:17;32.70;20.90
18177;DHT22;9213;50.858;3.964;2023-07-02T13:29:45;32.70;21.50
18177;DHT22;9213;50.858;3.964;2023-07-02T13:32:12;32.70;20.60
18177;DHT22;9213;50.858;3.964;2023-07-02T13:34:38;32.70;19.70
18177;DHT22;9213;50.858;3.964;2023-07-02T13:37:08;32.70;20.20
18177;DHT22;9213;50.858;3.964;2023-07-02T13:39:35;32.80;21.60
18177;DHT22;9213;50.858;3.964;2023-07-02T13:42:02;32.90;19.80
18177;DHT22;9213;50.858;3.964;2023-07-02T13:44:29;32.90;20.50
18177;DHT22;9213;50.858;3.964;2023-07-02T13:46:56;33.00;21.00
18177;DHT22;9213;50.858;3.964;2023-07-02T13:49:23;33.00;20.70
18177;DHT22;9213;50.858;3.964;2023-07-02T13:51:49;32.90;19.80
18177;DHT22;9213;50.858;3.964;2023-07-02T13:54:18;32.80;20.00
18177;DHT22;9213;50.858;3.964;2023-07-02T13:56:46;32.70;20.50
18177;DHT22;9213;50.858;3.964;2023-07-02T13:59:14;32.60;20.30
18177;DHT22;9213;50.858;3.964;2023-07-02T14:01:42;32.40;20.30
18177;DHT22;9213;50.858;3.964;2023-07-02T14:04:10;32.40;21.10
18177;DHT22;9213;50.858;3.964;2023-07-02T14:06:37;32.40;20.20
18177;DHT22;9213;50.858;3.964;2023-07-02T14:09:05;32.50;20.60
18177;DHT22;9213;50.858;3.964;2023-07-02T14:11:34;32.50;20.00
18177;DHT22;9213;50.858;3.964;2023-07-02T14:14:01;32.40;20.00
18177;DHT22;9213;50.858;3.964;2023-07-02T14:16:29;32.40;19.80
18177;DHT22;9213;50.858;3.964;2023-07-02T14:18:56;32.40;20.90
18177;DHT22;9213;50.858;3.964;2023-07-02T14:21:23;32.40;20.00
18177;DHT22;9213;50.858;3.964;2023-07-02T14:23:50;32.40;19.80
18177;DHT22;9213;50.858;3.964;2023-07-02T14:26:17;32.30;20.00
18177;DHT22;9213;50.858;3.964;2023-07-02T14:28:44;32.20;20.10
18177;DHT22;9213;50.858;3.964;2023-07-02T14:31:11;32.20;20.20
18177;DHT22;9213;50.858;3.964;2023-07-02T14:33:39;32.20;20.20
18177;DHT22;9213;50.858;3.964;2023-07-02T14:36:07;32.20;20.50
18177;DHT22;9213;50.858;3.964;2023-07-02T14:38:34;32.20;20.80
18177;DHT22;9213;50.858;3.964;2023-07-02T14:41:01;32.30;20.60
18177;DHT22;9213;50.858;3.964;2023-07-02T14:43:29;32.40;20.50
18177;DHT22;9213;50.858;3.964;2023-07-02T14:46:00;32.40;20.60
18177;DHT22;9213;50.858;3.964;2023-07-02T14:48:27;32.40;20.10
18177;DHT22;9213;50.858;3.964;2023-07-02T14:50:57;32.40;20.20
18177;DHT22;9213;50.858;3.964;2023-07-02T14:53:25;32.40;20.10
18177;DHT22;9213;50.858;3.964;2023-07-02T14:55:55;32.40;20.50
18177;DHT22;9213;50.858;3.964;2023-07-02T14:58:22;32.20;20.80
18177;DHT22;9213;50.858;3.964;2023-07-02T15:00:51;32.00;20.80
18177;DHT22;9213;50.858;3.964;2023-07-02T15:03:19;31.80;20.80
18177;DHT22;9213;50.858;3.964;2023-07-02T15:05:47;31.60;20.70
18177;DHT22;9213;50.858;3.964;2023-07-02T15:08:16;31.50;21.00
18177;DHT22;9213;50.858;3.964;2023-07-02T15:10:46;31.30;21.40
18177;DHT22;9213;50.858;3.964;2023-07-02T15:13:13;31.20;21.70
18177;DHT22;9213;50.858;3.964;2023-07-02T15:15:40;31.20;21.30
18177;DHT22;9213;50.858;3.964;2023-07-02T15:18:07;31.20;21.70
18177;DHT22;9213;50.858;3.964;2023-07-02T15:20:35;31.10;22.30
18177;DHT22;9213;50.858;3.964;2023-07-02T15:23:02;31.10;22.20
18177;DHT22;9213;50.858;3.964;2023-07-02T15:25:32;31.10;22.40
18177;DHT22;9213;50.858;3.964;2023-07-02T15:28:00;31.10;22.40
18177;DHT22;9213;50.858;3.964;2023-07-02T15:30:27;31.10;22.00
18177;DHT22;9213;50.858;3.964;2023-07-02T15:32:54;31.00;21.70
18177;DHT22;9213;50.858;3.964;2023-07-02T15:35:21;30.90;21.30
18177;DHT22;9213;50.858;3.964;2023-07-02T15:37:48;30.70;21.70
18177;DHT22;9213;50.858;3.964;2023-07-02T15:40:15;30.70;21.70
18177;DHT22;9213;50.858;3.964;2023-07-02T15:42:44;30.50;22.00
18177;DHT22;9213;50.858;3.964;2023-07-02T15:45:11;30.50;22.60
18177;DHT22;9213;50.858;3.964;2023-07-02T15:47:37;30.40;23.40